createdAt,value
2018-11-11T00:01:58.326Z,48.17
2018-11-11T00:04:32.134Z,47.30
2018-11-11T00:07:02.129Z,48.40
2018-11-11T00:09:34.333Z,48.87
2018-11-11T00:12:07.328Z,46.50
2018-11-11T00:14:37.238Z,47.60
2018-11-11T00:17:10.414Z,46.43
2018-11-11T00:19:40.440Z,49.30
2018-11-11T00:22:11.352Z,45.63
2018-11-11T00:24:40.924Z,48.40
2018-11-11T00:27:12.235Z,49.53
2018-11-11T00:29:44.482Z,47.27
2018-11-11T00:32:16.209Z,47.77
2018-11-11T00:34:46.651Z,45.93
2018-11-11T00:37:16.168Z,45.33
2018-11-11T00:39:46.399Z,47.70
2018-11-11T00:42:18.010Z,49.40
2018-11-11T00:44:48.402Z,47.60
2018-11-11T00:47:18.353Z,47.20
2018-11-11T00:49:49.596Z,48.50
2018-11-11T00:52:19.263Z,47.10
2018-11-11T00:54:50.439Z,48.10
2018-11-11T00:57:20.371Z,48.47
2018-11-11T00:59:50.414Z,47.17
2018-11-11T01:02:22.464Z,46.90
2018-11-11T01:04:52.910Z,47.80
2018-11-11T01:07:23.641Z,47.97
2018-11-11T01:09:53.595Z,47.17
2018-11-11T01:12:24.637Z,46.50
2018-11-11T01:14:55.231Z,46.47
2018-11-11T01:17:25.539Z,47.50
2018-11-11T01:19:56.579Z,47.80
2018-11-11T01:22:26.621Z,47.13
2018-11-11T01:24:57.453Z,47.87
2018-11-11T01:27:28.597Z,49.07
2018-11-11T01:29:58.466Z,48.07
2018-11-11T01:32:29.656Z,49.10
2018-11-11T01:34:59.207Z,47.50
2018-11-11T01:37:30.367Z,50.87
2018-11-11T01:40:00.686Z,47.63
2018-11-11T01:42:30.843Z,49.77
2018-11-11T01:45:01.682Z,49.63
2018-11-11T01:47:32.351Z,46.27
2018-11-11T01:50:02.763Z,47.90
2018-11-11T01:52:32.493Z,48.40
2018-11-11T01:55:03.789Z,48.47
2018-11-11T01:57:40.694Z,49.30
2018-11-11T02:00:13.983Z,48.77
2018-11-11T02:02:46.488Z,46.83
2018-11-11T02:05:18.755Z,47.77
2018-11-11T02:07:50.446Z,48.20
2018-11-11T02:10:21.630Z,46.67
2018-11-11T02:12:52.345Z,48.13
2018-11-11T02:15:22.799Z,50.60
2018-11-11T02:17:52.734Z,49.30
2018-11-11T02:20:23.973Z,48.87
2018-11-11T02:22:54.282Z,49.90
2018-11-11T02:25:24.827Z,50.03
2018-11-11T02:27:55.601Z,51.50
2018-11-11T02:30:25.774Z,50.10
2018-11-11T02:32:56.809Z,52.10
2018-11-11T02:35:26.818Z,51.33
2018-11-11T02:37:58.029Z,52.60
2018-11-11T02:40:27.759Z,52.63
2018-11-11T02:42:59.055Z,53.77
2018-11-11T02:45:29.783Z,52.77
2018-11-11T02:48:00.524Z,50.70
2018-11-11T02:50:30.974Z,53.53
2018-11-11T02:53:02.113Z,55.83
2018-11-11T02:55:32.617Z,55.60
2018-11-11T02:58:03.081Z,53.10
2018-11-11T03:00:33.586Z,56.70
2018-11-11T03:03:04.061Z,56.50
2018-11-11T03:05:33.950Z,56.27
2018-11-11T03:08:04.910Z,51.40
2018-11-11T03:10:35.461Z,54.80
2018-11-11T03:13:06.353Z,53.37
2018-11-11T03:15:35.907Z,52.17
2018-11-11T03:18:07.164Z,57.40
2018-11-11T03:20:37.231Z,53.00
2018-11-11T03:23:07.716Z,56.60
2018-11-11T03:25:38.074Z,52.17
2018-11-11T03:28:09.074Z,55.10
2018-11-11T03:30:39.046Z,54.27
2018-11-11T03:33:10.018Z,56.30
2018-11-11T03:35:40.268Z,53.80
2018-11-11T03:38:11.027Z,53.70
2018-11-11T03:40:40.533Z,55.33
2018-11-11T03:43:11.978Z,53.40
2018-11-11T03:45:42.462Z,54.30
2018-11-11T03:48:13.142Z,53.10
2018-11-11T03:50:43.644Z,54.87
2018-11-11T03:53:14.450Z,53.67
2018-11-11T03:55:44.370Z,50.90
2018-11-11T03:58:15.387Z,55.13
2018-11-11T04:00:46.218Z,59.20
2018-11-11T04:03:16.936Z,55.87
2018-11-11T04:05:47.350Z,54.20
2018-11-11T04:08:18.160Z,55.47
2018-11-11T04:10:49.035Z,54.93
2018-11-11T04:13:19.607Z,52.83
2018-11-11T04:15:50.251Z,55.00
2018-11-11T04:18:21.214Z,56.93
2018-11-11T04:20:54.327Z,57.50
2018-11-11T04:23:26.004Z,56.40
2018-11-11T04:25:58.376Z,55.60
2018-11-11T04:28:30.486Z,56.43
2018-11-11T04:31:02.399Z,54.33
2018-11-11T04:33:32.518Z,56.17
2018-11-11T04:36:03.323Z,55.70
2018-11-11T04:38:34.398Z,55.97
2018-11-11T04:41:04.494Z,56.87
2018-11-11T04:43:34.414Z,55.80
2018-11-11T04:46:06.292Z,57.70
2018-11-11T04:48:45.059Z,56.50
2018-11-11T04:51:15.533Z,58.00
2018-11-11T04:53:45.482Z,57.97
2018-11-11T04:56:16.478Z,54.47
2018-11-11T04:58:46.496Z,56.77
2018-11-11T05:01:17.589Z,54.83
2018-11-11T05:03:47.567Z,54.63
2018-11-11T05:06:21.243Z,55.10
2018-11-11T05:08:51.630Z,55.93
2018-11-11T05:11:22.744Z,60.20
2018-11-11T05:13:52.698Z,59.50
2018-11-11T05:16:24.430Z,59.13
2018-11-11T05:18:54.644Z,59.07
2018-11-11T05:21:24.598Z,59.43
2018-11-11T05:23:56.311Z,59.47
2018-11-11T05:26:26.621Z,58.47
2018-11-11T05:28:57.443Z,59.23
2018-11-11T05:31:27.657Z,57.10
2018-11-11T05:33:58.570Z,57.93
2018-11-11T05:36:30.832Z,55.57
2018-11-11T05:39:02.772Z,57.60
2018-11-11T05:41:38.297Z,56.57
2018-11-11T05:44:13.960Z,59.33
2018-11-11T05:46:49.522Z,58.83
2018-11-11T05:49:25.076Z,58.90
2018-11-11T05:52:00.588Z,60.30
2018-11-11T05:54:36.127Z,57.17
2018-11-11T05:57:11.589Z,59.07
2018-11-11T05:59:47.125Z,59.13
2018-11-11T06:02:22.571Z,58.40
2018-11-11T06:04:57.949Z,60.17
2018-11-11T06:07:33.437Z,60.20
2018-11-11T06:10:10.472Z,57.83
2018-11-11T06:12:45.943Z,60.37
2018-11-11T06:15:21.316Z,58.90
2018-11-11T06:17:56.940Z,62.63
2018-11-11T06:20:32.427Z,56.60
2018-11-11T06:23:07.838Z,61.53
2018-11-11T06:25:43.397Z,61.77
2018-11-11T06:28:18.957Z,60.87
2018-11-11T06:30:54.321Z,64.77
2018-11-11T06:33:29.794Z,60.50
2018-11-11T06:36:05.489Z,62.00
2018-11-11T06:38:40.951Z,62.10
2018-11-11T06:41:16.569Z,63.40
2018-11-11T06:43:51.930Z,62.00
2018-11-11T06:46:27.515Z,61.23
2018-11-11T06:49:03.132Z,61.97
2018-11-11T06:51:38.668Z,61.67
2018-11-11T06:54:14.299Z,65.43
2018-11-11T06:56:49.677Z,64.30
2018-11-11T06:59:25.087Z,64.60
2018-11-11T07:02:00.645Z,60.27
2018-11-11T07:04:36.170Z,63.50
2018-11-11T07:07:11.665Z,62.97
2018-11-11T07:09:47.119Z,59.00
2018-11-11T07:12:22.827Z,59.87
2018-11-11T07:14:58.288Z,59.83
2018-11-11T07:17:33.711Z,61.67
2018-11-11T07:20:09.277Z,59.80
2018-11-11T07:22:44.967Z,60.50
2018-11-11T07:25:20.319Z,62.70
2018-11-11T07:27:55.875Z,59.00
2018-11-11T07:30:31.188Z,59.20
2018-11-11T07:33:06.844Z,59.70
2018-11-11T07:35:42.302Z,61.10
2018-11-11T07:38:17.781Z,64.73
2018-11-11T07:40:53.510Z,60.20
2018-11-11T07:43:29.021Z,57.20
2018-11-11T07:46:05.287Z,56.60
2018-11-11T07:48:41.150Z,59.73
2018-11-11T07:51:16.612Z,56.43
2018-11-11T07:53:52.163Z,60.05
2018-11-11T07:56:28.323Z,60.40
2018-11-11T07:59:04.280Z,57.67
2018-11-11T08:01:39.857Z,58.60
2018-11-11T08:04:15.554Z,56.10
2018-11-11T08:06:51.084Z,56.80
2018-11-11T08:09:26.722Z,59.73
2018-11-11T08:12:03.357Z,58.73
2018-11-11T08:14:38.924Z,57.90
2018-11-11T08:17:14.287Z,58.47
2018-11-11T08:19:49.639Z,55.57
2018-11-11T08:22:26.313Z,56.53
2018-11-11T08:25:01.746Z,56.70
2018-11-11T08:27:37.282Z,55.40
2018-11-11T08:30:12.943Z,54.33
2018-11-11T08:32:48.409Z,53.10
2018-11-11T08:35:24.052Z,54.50
2018-11-11T08:37:59.414Z,52.20
2018-11-11T08:40:34.885Z,54.50
2018-11-11T08:43:10.349Z,53.80
2018-11-11T08:45:45.803Z,52.47
2018-11-11T08:48:21.254Z,50.80
2018-11-11T08:50:56.743Z,51.10
2018-11-11T08:53:32.507Z,51.63
2018-11-11T08:56:07.978Z,52.00
2018-11-11T08:58:43.539Z,50.67
2018-11-11T09:01:19.050Z,50.43
2018-11-11T09:03:54.627Z,50.37
2018-11-11T09:06:30.165Z,50.63
2018-11-11T09:09:07.381Z,47.37
2018-11-11T09:11:42.978Z,68.37
2018-11-11T09:14:18.593Z,49.50
2018-11-11T09:16:54.145Z,48.70
2018-11-11T09:19:29.738Z,47.40
2018-11-11T09:22:05.690Z,50.83
2018-11-11T09:24:41.158Z,49.20
2018-11-11T09:27:16.707Z,46.27
2018-11-11T09:29:52.317Z,46.20
2018-11-11T09:32:27.806Z,44.80
2018-11-11T09:35:03.483Z,46.23
2018-11-11T09:37:39.344Z,48.30
2018-11-11T09:40:15.079Z,44.90
2018-11-11T09:42:50.703Z,57.23
2018-11-11T09:45:26.075Z,46.87
2018-11-11T09:48:01.882Z,44.07
2018-11-11T09:50:37.230Z,43.93
2018-11-11T09:53:12.800Z,41.60
2018-11-11T09:55:48.343Z,41.00
2018-11-11T09:58:23.838Z,42.27
2018-11-11T10:00:59.250Z,40.33
2018-11-11T10:03:38.453Z,40.10
2018-11-11T10:06:22.128Z,39.70
2018-11-11T10:09:03.747Z,40.10
2018-11-11T10:11:44.349Z,40.43
2018-11-11T10:25:06.472Z,42.30
2018-11-11T10:27:46.679Z,37.23
2018-11-11T10:30:27.089Z,38.77
2018-11-11T10:33:18.882Z,41.73
2018-11-11T10:36:06.498Z,38.87
2018-11-11T10:38:49.414Z,40.07
2018-11-11T10:41:30.081Z,40.07
2018-11-11T10:44:12.022Z,40.10
2018-11-11T10:47:52.031Z,38.13
2018-11-11T10:50:32.639Z,40.93
2018-11-11T10:53:08.431Z,37.70
2018-11-11T10:55:43.828Z,39.03
2018-11-11T10:58:19.380Z,39.70
2018-11-11T11:01:00.024Z,39.70
2018-11-11T11:03:36.933Z,39.40
2018-11-11T11:06:12.567Z,37.10
2018-11-11T11:08:53.057Z,38.20
2018-11-11T11:11:28.446Z,39.20
2018-11-11T11:14:03.861Z,38.63
2018-11-11T11:16:39.588Z,36.67
2018-11-11T11:19:15.276Z,38.80
2018-11-11T11:21:45.229Z,39.73
2018-11-11T11:24:16.111Z,37.70
2018-11-11T11:26:46.422Z,39.23
2018-11-11T11:29:16.195Z,37.47
2018-11-11T11:31:46.678Z,38.87
2018-11-11T11:34:17.589Z,38.00
2018-11-11T11:36:47.154Z,39.70
2018-11-11T11:39:17.343Z,38.90
2018-11-11T11:41:47.434Z,36.73
2018-11-11T11:44:17.382Z,37.60
2018-11-11T11:46:49.143Z,35.93
2018-11-11T11:49:21.611Z,37.10
2018-11-11T11:51:52.158Z,50.77
2018-11-11T11:54:22.472Z,51.30
2018-11-11T11:56:52.280Z,115.03
2018-11-11T11:59:23.145Z,48.67
2018-11-11T12:01:53.554Z,59.97
2018-11-11T12:04:23.719Z,64.13
2018-11-11T12:06:53.994Z,49.37
2018-11-11T12:09:24.448Z,34.40
2018-11-11T12:11:54.583Z,33.50
2018-11-11T12:14:24.321Z,35.90
2018-11-11T12:16:55.219Z,35.23
2018-11-11T12:19:25.283Z,34.37
2018-11-11T12:21:55.467Z,34.93
2018-11-11T12:24:25.558Z,35.57
2018-11-11T12:26:56.411Z,34.47
2018-11-11T12:29:26.708Z,34.00
2018-11-11T12:31:56.520Z,35.70
2018-11-11T12:34:27.071Z,34.47
2018-11-11T12:36:57.584Z,36.47
2018-11-11T12:39:27.787Z,34.10
2018-11-11T12:41:57.357Z,33.57
2018-11-11T12:44:28.717Z,34.87
2018-11-11T12:46:58.771Z,38.43
2018-11-11T12:49:28.795Z,34.67
2018-11-11T12:51:59.835Z,35.30
2018-11-11T12:54:29.545Z,35.27
2018-11-11T12:57:00.032Z,34.87
2018-11-11T12:59:30.222Z,35.70
2018-11-11T13:02:00.771Z,33.77
2018-11-11T13:04:30.963Z,34.80
2018-11-11T13:07:00.678Z,32.30
2018-11-11T13:09:33.002Z,32.93
2018-11-11T13:12:06.705Z,34.63
2018-11-11T13:14:39.120Z,34.10
2018-11-11T13:17:11.749Z,32.90
2018-11-11T13:19:42.798Z,35.00
2018-11-11T13:22:13.439Z,34.27
2018-11-11T13:24:43.047Z,35.10
2018-11-11T13:27:13.527Z,31.70
2018-11-11T13:29:46.355Z,36.60
2018-11-11T13:32:16.949Z,36.13
2018-11-11T13:34:47.085Z,36.73
2018-11-11T13:37:17.805Z,34.77
2018-11-11T13:39:47.835Z,33.90
2018-11-11T13:42:17.930Z,34.33
2018-11-11T13:44:51.568Z,33.17
2018-11-11T13:47:21.910Z,34.67
2018-11-11T13:49:52.661Z,33.10
2018-11-11T13:52:23.093Z,35.10
2018-11-11T13:54:53.391Z,36.17
2018-11-11T13:57:24.079Z,34.10
2018-11-11T13:59:56.654Z,35.10
2018-11-11T14:02:27.999Z,32.53
2018-11-11T14:04:58.781Z,35.30
2018-11-11T14:07:29.029Z,34.40
2018-11-11T14:10:01.686Z,34.17
2018-11-11T14:12:32.974Z,32.87
2018-11-11T14:15:04.191Z,33.27
2018-11-11T14:17:37.710Z,35.90
2018-11-11T14:20:11.673Z,34.10
2018-11-11T14:22:43.985Z,36.30
2018-11-11T14:25:18.694Z,35.50
2018-11-11T14:27:49.094Z,35.10
2018-11-11T14:30:22.505Z,33.20
2018-11-11T14:32:53.835Z,34.73
2018-11-11T14:35:26.091Z,34.47
2018-11-11T14:37:56.091Z,33.77
2018-11-11T14:40:28.558Z,33.33
2018-11-11T14:42:58.585Z,31.80
2018-11-11T14:45:33.971Z,33.17
2018-11-11T14:48:05.089Z,31.97
2018-11-11T14:50:38.370Z,32.23
2018-11-11T14:53:10.401Z,32.43
2018-11-11T14:55:41.210Z,31.40
2018-11-11T14:58:14.709Z,30.37
2018-11-11T15:00:47.379Z,32.20
2018-11-11T15:03:18.543Z,30.93
2018-11-11T15:05:48.719Z,33.47
2018-11-11T15:08:18.959Z,32.80
2018-11-11T15:10:48.915Z,31.80
2018-11-11T15:13:19.471Z,31.10
2018-11-11T15:15:49.246Z,30.97
2018-11-11T15:18:20.492Z,32.50
2018-11-11T15:20:50.350Z,32.70
2018-11-11T15:23:20.620Z,30.70
2018-11-11T15:28:27.517Z,33.67
2018-11-11T15:30:57.907Z,32.57
2018-11-11T15:33:27.512Z,31.97
2018-11-11T15:35:58.388Z,32.80
2018-11-11T15:38:29.485Z,34.03
2018-11-11T15:41:01.651Z,32.70
2018-11-11T15:43:32.425Z,32.80
2018-11-11T15:51:51.541Z,32.23
2018-11-11T15:54:22.643Z,33.13
2018-11-11T15:59:21.043Z,33.90
2018-11-11T16:01:52.454Z,34.40
2018-11-11T16:04:23.576Z,34.43
2018-11-11T16:06:54.662Z,38.80
2018-11-11T16:09:26.687Z,36.63
2018-11-11T16:11:58.024Z,36.97
2018-11-11T16:14:27.885Z,36.60
2018-11-11T16:16:58.282Z,37.90
2018-11-11T16:19:29.411Z,36.90
2018-11-11T16:21:59.376Z,37.87
2018-11-11T16:24:30.247Z,35.77
2018-11-11T16:27:00.443Z,38.30
2018-11-11T16:29:31.122Z,39.00
2018-11-11T16:32:01.501Z,39.80
2018-11-11T16:34:31.146Z,39.10
2018-11-11T16:37:01.012Z,39.17
2018-11-11T16:39:37.807Z,38.63
2018-11-11T16:42:09.768Z,40.27
2018-11-11T16:44:42.480Z,40.70
2018-11-11T16:47:12.751Z,40.70
2018-11-11T16:49:43.125Z,40.50
2018-11-11T16:52:16.163Z,37.93
2018-11-11T16:54:46.995Z,41.77
2018-11-11T16:57:16.760Z,41.37
2018-11-11T16:59:47.495Z,42.60
2018-11-11T17:02:18.474Z,40.47
2018-11-11T17:10:13.051Z,47.07
2018-11-11T17:12:44.354Z,50.90
2018-11-11T17:15:20.103Z,47.67
2018-11-11T17:17:50.544Z,48.27
2018-11-11T17:20:24.520Z,48.63
2018-11-11T17:23:02.808Z,56.13
2018-11-11T17:25:35.694Z,48.60
2018-11-11T17:28:06.608Z,46.57
2018-11-11T17:30:43.214Z,51.23
2018-11-11T17:33:13.423Z,53.10
2018-11-11T17:35:44.691Z,51.67
2018-11-11T17:38:14.772Z,46.17
2018-11-11T17:40:46.936Z,51.43
2018-11-11T17:43:17.683Z,52.20
2018-11-11T17:45:50.360Z,48.67
2018-11-11T17:48:20.984Z,48.40
2018-11-11T17:50:51.535Z,66.17
2018-11-11T17:53:22.509Z,65.03
2018-11-11T17:55:56.687Z,62.93
2018-11-11T17:58:28.189Z,60.23
2018-11-11T18:00:58.471Z,49.77
2018-11-11T18:03:29.912Z,51.73
2018-11-11T18:06:00.220Z,49.50
2018-11-11T18:08:30.331Z,47.40
2018-11-11T18:11:00.834Z,48.97
2018-11-11T18:13:30.955Z,48.13
2018-11-11T18:16:01.318Z,48.60
2018-11-11T18:18:31.171Z,45.03
2018-11-11T18:21:01.968Z,46.33
2018-11-11T18:23:32.265Z,48.20
2018-11-11T18:26:09.520Z,47.30
2018-11-11T18:28:42.264Z,46.50
2018-11-11T18:31:13.575Z,49.47
2018-11-11T18:33:44.118Z,47.90
2018-11-11T18:36:14.602Z,45.67
2018-11-11T18:38:44.846Z,49.73
2018-11-11T18:41:15.603Z,48.57
2018-11-11T18:43:51.371Z,49.30
2018-11-11T18:46:21.333Z,49.20
2018-11-11T18:48:52.037Z,48.60
2018-11-11T18:51:22.323Z,50.07
2018-11-11T18:53:52.457Z,50.00
2018-11-11T18:56:22.907Z,47.93
2018-11-11T18:58:53.785Z,50.20
2018-11-11T19:01:23.573Z,48.63
2018-11-11T19:03:53.354Z,49.50
2018-11-11T19:06:24.473Z,50.13
2018-11-11T19:08:57.564Z,49.37
2018-11-11T19:11:28.881Z,51.10
2018-11-11T19:13:58.959Z,54.70
2018-11-11T19:16:29.818Z,52.03
2018-11-11T19:19:07.569Z,55.77
2018-11-11T19:21:37.893Z,56.80
2018-11-11T19:24:10.923Z,54.27
2018-11-11T19:26:44.796Z,53.50
2018-11-11T19:29:17.136Z,57.13
2018-11-11T19:31:49.558Z,55.73
2018-11-11T19:34:21.471Z,57.33
2018-11-11T19:39:48.204Z,55.27
2018-11-11T19:42:23.935Z,54.07
2018-11-11T19:44:58.902Z,54.60
2018-11-11T19:47:31.146Z,57.47
2018-11-11T19:50:02.275Z,55.33
2018-11-11T19:52:32.927Z,57.80
2018-11-11T19:55:04.530Z,54.97
2018-11-11T19:57:35.212Z,57.23
2018-11-11T20:00:06.158Z,58.47
2018-11-11T20:02:36.036Z,55.40
2018-11-11T20:05:10.248Z,57.80
2018-11-11T20:07:43.077Z,57.80
2018-11-11T20:10:14.908Z,59.80
2018-11-11T20:12:46.251Z,61.47
2018-11-11T20:15:18.374Z,66.80
2018-11-11T20:17:53.860Z,68.97
2018-11-11T20:20:25.208Z,67.67
2018-11-11T20:22:54.812Z,66.70
2018-11-11T20:25:24.955Z,70.37
2018-11-11T20:27:59.126Z,70.37
2018-11-11T20:30:32.653Z,70.87
2018-11-11T20:33:05.395Z,74.00
2018-11-11T20:35:36.225Z,76.40
2018-11-11T20:38:12.546Z,71.57
2018-11-11T20:40:43.127Z,73.90
2018-11-11T20:43:14.416Z,72.80
2018-11-11T20:45:44.306Z,73.43
2018-11-11T20:48:14.955Z,69.27
2018-11-11T20:50:45.226Z,68.03
2018-11-11T20:53:15.673Z,68.63
2018-11-11T20:55:47.120Z,68.20
2018-11-11T20:58:16.951Z,69.33
2018-11-11T21:00:47.239Z,72.50
2018-11-11T21:03:17.673Z,71.00
2018-11-11T21:05:48.508Z,70.80
2018-11-11T21:08:19.519Z,67.13
2018-11-11T21:10:52.705Z,68.53
2018-11-11T21:13:24.036Z,68.23
2018-11-11T21:15:56.427Z,66.53
2018-11-11T21:18:26.989Z,71.00
2018-11-11T21:20:57.153Z,66.90
2018-11-11T21:23:28.687Z,73.13
2018-11-11T21:25:58.690Z,67.50
2018-11-11T21:28:31.231Z,70.53
2018-11-11T21:31:03.269Z,69.10
2018-11-11T21:33:34.555Z,68.77
2018-11-11T21:36:04.327Z,70.67
2018-11-11T21:38:38.156Z,66.07
2018-11-11T21:41:10.132Z,66.40
2018-11-11T21:43:41.964Z,64.43
2018-11-11T21:46:12.547Z,63.83
2018-11-11T21:48:42.900Z,61.63
2018-11-11T21:51:13.353Z,64.30
2018-11-11T21:53:43.810Z,64.80
2018-11-11T21:56:14.129Z,63.17
2018-11-11T21:58:44.613Z,61.97
2018-11-11T22:01:14.808Z,65.03
2018-11-11T22:03:45.397Z,65.80
2018-11-11T22:06:15.617Z,62.00
2018-11-11T22:08:45.970Z,62.53
2018-11-11T22:11:16.465Z,63.40
2018-11-11T22:13:47.031Z,64.00
2018-11-11T22:16:19.396Z,61.57
2018-11-11T22:18:51.800Z,64.07
2018-11-11T22:21:24.594Z,62.40
2018-11-11T22:23:55.265Z,62.93
2018-11-11T22:26:25.457Z,64.27
2018-11-11T22:28:55.909Z,66.07
2018-11-11T22:31:26.372Z,66.40
2018-11-11T22:33:57.970Z,62.43
2018-11-11T22:36:30.805Z,64.83
2018-11-11T22:39:10.811Z,65.30
2018-11-11T22:41:41.443Z,61.43
2018-11-11T22:44:11.548Z,65.00
2018-11-11T22:46:42.452Z,63.60
2018-11-11T22:49:12.610Z,65.50
2018-11-11T22:51:43.346Z,68.73
2018-11-11T22:54:14.026Z,62.40
2018-11-11T22:56:49.720Z,62.70
2018-11-11T22:59:20.628Z,65.40
2018-11-11T23:01:52.370Z,65.00
2018-11-11T23:04:22.996Z,63.73
2018-11-11T23:06:54.627Z,63.73
2018-11-11T23:09:27.354Z,64.53
2018-11-11T23:12:00.582Z,68.47
2018-11-11T23:14:30.931Z,63.80
2018-11-11T23:17:00.546Z,65.67
2018-11-11T23:19:30.487Z,70.67
2018-11-11T23:22:01.364Z,66.00
2018-11-11T23:24:31.972Z,63.80
2018-11-11T23:27:02.384Z,71.73
2018-11-11T23:29:32.667Z,69.53
2018-11-11T23:32:03.101Z,66.13
2018-11-11T23:34:33.384Z,67.10
2018-11-11T23:37:03.959Z,68.80
2018-11-11T23:39:34.432Z,67.57
2018-11-11T23:42:05.078Z,70.10
2018-11-11T23:44:35.925Z,71.47
2018-11-11T23:47:06.181Z,71.10
2018-11-11T23:49:36.475Z,70.90
2018-11-11T23:52:07.174Z,65.77
2018-11-11T23:54:37.667Z,69.73
2018-11-11T23:57:11.281Z,71.27
2018-11-11T23:59:41.756Z,70.13
